sensor_id;sensor_type;location;lat;lon;timestamp;P1;durP1;ratioP1;P2;durP2;ratioP2
43933;SDS011;59081;42.706;23.306;2023-04-25T00:00:43;4.63;;;3.22;;
43933;SDS011;59081;42.706;23.306;2023-04-25T00:03:09;3.38;;;2.42;;
43933;SDS011;59081;42.706;23.306;2023-04-25T00:05:34;6.88;;;3.83;;
43933;SDS011;59081;42.706;23.306;2023-04-25T00:08:02;3.85;;;2.45;;
43933;SDS011;59081;42.706;23.306;2023-04-25T00:10:28;2.83;;;2.25;;
43933;SDS011;59081;42.706;23.306;2023-04-25T00:12:53;5.88;;;3.42;;
43933;SDS011;59081;42.706;23.306;2023-04-25T00:15:19;5.15;;;3.25;;
43933;SDS011;59081;42.706;23.306;2023-04-25T00:17:44;7.53;;;3.97;;
43933;SDS011;59081;42.706;23.306;2023-04-25T00:20:11;6.68;;;3.50;;
43933;SDS011;59081;42.706;23.306;2023-04-25T00:22:37;5.85;;;3.72;;
43933;SDS011;59081;42.706;23.306;2023-04-25T00:25:03;4.55;;;3.70;;
43933;SDS011;59081;42.706;23.306;2023-04-25T00:27:30;4.65;;;3.45;;
43933;SDS011;59081;42.706;23.306;2023-04-25T00:29:55;4.82;;;3.38;;
43933;SDS011;59081;42.706;23.306;2023-04-25T00:32:21;6.10;;;4.20;;
43933;SDS011;59081;42.706;23.306;2023-04-25T00:34:46;6.30;;;4.35;;
43933;SDS011;59081;42.706;23.306;2023-04-25T00:37:12;5.60;;;4.03;;
43933;SDS011;59081;42.706;23.306;2023-04-25T00:39:37;5.00;;;3.88;;
43933;SDS011;59081;42.706;23.306;2023-04-25T00:42:03;5.72;;;4.35;;
43933;SDS011;59081;42.706;23.306;2023-04-25T00:44:29;7.20;;;4.47;;
43933;SDS011;59081;42.706;23.306;2023-04-25T00:46:55;6.03;;;4.65;;
43933;SDS011;59081;42.706;23.306;2023-04-25T00:49:22;6.88;;;4.30;;
43933;SDS011;59081;42.706;23.306;2023-04-25T00:51:47;6.90;;;4.20;;
43933;SDS011;59081;42.706;23.306;2023-04-25T00:54:13;7.30;;;4.70;;
43933;SDS011;59081;42.706;23.306;2023-04-25T00:56:39;6.82;;;4.07;;
43933;SDS011;59081;42.706;23.306;2023-04-25T00:59:05;7.40;;;4.50;;
43933;SDS011;59081;42.706;23.306;2023-04-25T01:01:30;7.25;;;4.00;;
43933;SDS011;59081;42.706;23.306;2023-04-25T01:03:56;4.90;;;4.15;;
43933;SDS011;59081;42.706;23.306;2023-04-25T01:06:23;8.40;;;4.60;;
43933;SDS011;59081;42.706;23.306;2023-04-25T01:08:49;10.70;;;5.75;;
43933;SDS011;59081;42.706;23.306;2023-04-25T01:11:14;8.68;;;5.45;;
43933;SDS011;59081;42.706;23.306;2023-04-25T01:13:40;6.97;;;5.47;;
43933;SDS011;59081;42.706;23.306;2023-04-25T01:16:05;9.25;;;6.47;;
43933;SDS011;59081;42.706;23.306;2023-04-25T01:18:31;7.85;;;5.72;;
43933;SDS011;59081;42.706;23.306;2023-04-25T01:21:01;8.63;;;5.25;;
43933;SDS011;59081;42.706;23.306;2023-04-25T01:23:35;10.52;;;5.90;;
43933;SDS011;59081;42.706;23.306;2023-04-25T01:26:00;8.18;;;5.90;;
43933;SDS011;59081;42.706;23.306;2023-04-25T01:28:26;9.23;;;5.90;;
43933;SDS011;59081;42.706;23.306;2023-04-25T01:30:52;7.43;;;5.50;;
43933;SDS011;59081;42.706;23.306;2023-04-25T01:33:19;8.35;;;4.80;;
43933;SDS011;59081;42.706;23.306;2023-04-25T01:35:46;6.93;;;4.97;;
43933;SDS011;59081;42.706;23.306;2023-04-25T01:38:12;4.72;;;4.22;;
43933;SDS011;59081;42.706;23.306;2023-04-25T01:40:38;6.03;;;4.82;;
43933;SDS011;59081;42.706;23.306;2023-04-25T01:43:05;5.07;;;4.28;;
43933;SDS011;59081;42.706;23.306;2023-04-25T01:45:31;7.72;;;4.10;;
43933;SDS011;59081;42.706;23.306;2023-04-25T01:47:56;6.90;;;4.88;;
43933;SDS011;59081;42.706;23.306;2023-04-25T01:50:24;6.30;;;5.03;;
43933;SDS011;59081;42.706;23.306;2023-04-25T01:52:50;9.40;;;5.32;;
43933;SDS011;59081;42.706;23.306;2023-04-25T01:55:15;9.05;;;5.18;;
43933;SDS011;59081;42.706;23.306;2023-04-25T01:57:41;8.35;;;5.28;;
43933;SDS011;59081;42.706;23.306;2023-04-25T02:00:07;7.00;;;4.93;;
43933;SDS011;59081;42.706;23.306;2023-04-25T02:02:34;9.00;;;5.05;;
43933;SDS011;59081;42.706;23.306;2023-04-25T02:05:00;6.50;;;4.95;;
43933;SDS011;59081;42.706;23.306;2023-04-25T02:07:26;6.65;;;4.63;;
43933;SDS011;59081;42.706;23.306;2023-04-25T02:09:51;6.70;;;4.47;;
43933;SDS011;59081;42.706;23.306;2023-04-25T02:12:17;6.45;;;5.18;;
43933;SDS011;59081;42.706;23.306;2023-04-25T02:14:42;7.03;;;4.45;;
43933;SDS011;59081;42.706;23.306;2023-04-25T02:17:08;6.03;;;4.63;;
43933;SDS011;59081;42.706;23.306;2023-04-25T02:19:33;5.25;;;3.95;;
43933;SDS011;59081;42.706;23.306;2023-04-25T02:21:59;5.68;;;4.22;;
43933;SDS011;59081;42.706;23.306;2023-04-25T02:24:24;4.97;;;4.32;;
43933;SDS011;59081;42.706;23.306;2023-04-25T02:26:50;7.00;;;4.80;;
43933;SDS011;59081;42.706;23.306;2023-04-25T02:29:15;7.13;;;4.65;;
43933;SDS011;59081;42.706;23.306;2023-04-25T02:31:41;6.32;;;4.30;;
43933;SDS011;59081;42.706;23.306;2023-04-25T02:34:07;5.68;;;4.35;;
43933;SDS011;59081;42.706;23.306;2023-04-25T02:36:32;6.57;;;4.72;;
43933;SDS011;59081;42.706;23.306;2023-04-25T02:39:00;7.88;;;5.30;;
43933;SDS011;59081;42.706;23.306;2023-04-25T02:41:26;8.68;;;4.88;;
43933;SDS011;59081;42.706;23.306;2023-04-25T02:43:52;6.80;;;5.13;;
43933;SDS011;59081;42.706;23.306;2023-04-25T02:46:17;9.10;;;5.32;;
43933;SDS011;59081;42.706;23.306;2023-04-25T02:48:43;8.23;;;4.88;;
43933;SDS011;59081;42.706;23.306;2023-04-25T02:51:08;6.13;;;4.65;;
43933;SDS011;59081;42.706;23.306;2023-04-25T02:53:34;10.50;;;4.97;;
43933;SDS011;59081;42.706;23.306;2023-04-25T02:55:59;7.30;;;4.88;;
43933;SDS011;59081;42.706;23.306;2023-04-25T02:58:25;6.53;;;5.05;;
43933;SDS011;59081;42.706;23.306;2023-04-25T03:00:50;7.63;;;5.38;;
43933;SDS011;59081;42.706;23.306;2023-04-25T03:03:16;6.97;;;5.25;;
43933;SDS011;59081;42.706;23.306;2023-04-25T03:05:46;7.80;;;5.10;;
43933;SDS011;59081;42.706;23.306;2023-04-25T03:08:15;7.18;;;5.03;;
43933;SDS011;59081;42.706;23.306;2023-04-25T03:10:44;7.70;;;5.45;;
43933;SDS011;59081;42.706;23.306;2023-04-25T03:13:10;8.40;;;5.80;;
43933;SDS011;59081;42.706;23.306;2023-04-25T03:15:36;8.38;;;5.25;;
43933;SDS011;59081;42.706;23.306;2023-04-25T03:18:02;8.68;;;4.80;;
43933;SDS011;59081;42.706;23.306;2023-04-25T03:20:28;10.73;;;5.30;;
43933;SDS011;59081;42.706;23.306;2023-04-25T03:22:53;6.88;;;4.95;;
43933;SDS011;59081;42.706;23.306;2023-04-25T03:25:19;7.95;;;5.13;;
43933;SDS011;59081;42.706;23.306;2023-04-25T03:27:45;9.90;;;5.35;;
43933;SDS011;59081;42.706;23.306;2023-04-25T03:30:10;6.95;;;5.05;;
43933;SDS011;59081;42.706;23.306;2023-04-25T03:32:36;6.82;;;4.88;;
43933;SDS011;59081;42.706;23.306;2023-04-25T03:35:02;7.38;;;5.28;;
43933;SDS011;59081;42.706;23.306;2023-04-25T03:37:28;8.93;;;5.30;;
43933;SDS011;59081;42.706;23.306;2023-04-25T03:39:53;8.18;;;6.00;;
43933;SDS011;59081;42.706;23.306;2023-04-25T03:42:19;7.60;;;5.57;;
43933;SDS011;59081;42.706;23.306;2023-04-25T03:44:44;7.00;;;5.30;;
43933;SDS011;59081;42.706;23.306;2023-04-25T03:47:10;7.40;;;5.13;;
43933;SDS011;59081;42.706;23.306;2023-04-25T03:49:35;8.48;;;5.60;;
43933;SDS011;59081;42.706;23.306;2023-04-25T03:52:02;6.43;;;5.32;;
43933;SDS011;59081;42.706;23.306;2023-04-25T03:54:27;7.78;;;5.60;;
43933;SDS011;59081;42.706;23.306;2023-04-25T03:56:53;10.25;;;6.55;;
43933;SDS011;59081;42.706;23.306;2023-04-25T03:59:18;8.35;;;5.68;;
43933;SDS011;59081;42.706;23.306;2023-04-25T04:01:43;9.20;;;5.97;;
43933;SDS011;59081;42.706;23.306;2023-04-25T04:04:09;8.80;;;6.10;;
43933;SDS011;59081;42.706;23.306;2023-04-25T04:06:34;8.25;;;6.25;;
43933;SDS011;59081;42.706;23.306;2023-04-25T04:09:01;9.20;;;6.13;;
43933;SDS011;59081;42.706;23.306;2023-04-25T04:11:27;11.40;;;7.15;;
43933;SDS011;59081;42.706;23.306;2023-04-25T04:13:52;10.15;;;7.40;;
43933;SDS011;59081;42.706;23.306;2023-04-25T04:16:17;10.50;;;7.68;;
43933;SDS011;59081;42.706;23.306;2023-04-25T04:18:44;11.25;;;8.35;;
43933;SDS011;59081;42.706;23.306;2023-04-25T04:21:10;10.43;;;8.45;;
43933;SDS011;59081;42.706;23.306;2023-04-25T04:23:35;10.65;;;8.02;;
43933;SDS011;59081;42.706;23.306;2023-04-25T04:26:02;10.43;;;7.20;;
43933;SDS011;59081;42.706;23.306;2023-04-25T04:28:27;10.35;;;7.45;;
43933;SDS011;59081;42.706;23.306;2023-04-25T04:30:53;10.13;;;7.53;;
43933;SDS011;59081;42.706;23.306;2023-04-25T04:33:18;10.40;;;8.10;;
43933;SDS011;59081;42.706;23.306;2023-04-25T04:35:48;12.35;;;7.47;;
43933;SDS011;59081;42.706;23.306;2023-04-25T04:38:17;11.85;;;8.23;;
43933;SDS011;59081;42.706;23.306;2023-04-25T04:40:43;11.63;;;8.30;;
43933;SDS011;59081;42.706;23.306;2023-04-25T04:43:09;10.30;;;7.78;;
43933;SDS011;59081;42.706;23.306;2023-04-25T04:45:35;10.68;;;7.40;;
43933;SDS011;59081;42.706;23.306;2023-04-25T04:48:01;8.57;;;6.40;;
43933;SDS011;59081;42.706;23.306;2023-04-25T04:50:27;9.30;;;7.07;;
43933;SDS011;59081;42.706;23.306;2023-04-25T04:52:52;9.07;;;7.57;;
43933;SDS011;59081;42.706;23.306;2023-04-25T04:55:19;10.38;;;7.53;;
43933;SDS011;59081;42.706;23.306;2023-04-25T04:57:44;11.65;;;8.45;;
43933;SDS011;59081;42.706;23.306;2023-04-25T05:00:10;16.20;;;11.32;;
43933;SDS011;59081;42.706;23.306;2023-04-25T05:02:37;16.65;;;12.13;;
43933;SDS011;59081;42.706;23.306;2023-04-25T05:05:04;12.57;;;9.45;;
43933;SDS011;59081;42.706;23.306;2023-04-25T05:07:30;14.80;;;11.40;;
43933;SDS011;59081;42.706;23.306;2023-04-25T05:09:55;15.73;;;10.40;;
43933;SDS011;59081;42.706;23.306;2023-04-25T05:12:21;14.65;;;10.10;;
43933;SDS011;59081;42.706;23.306;2023-04-25T05:14:46;11.93;;;8.82;;
43933;SDS011;59081;42.706;23.306;2023-04-25T05:17:12;13.95;;;11.00;;
43933;SDS011;59081;42.706;23.306;2023-04-25T05:19:39;11.10;;;9.20;;
43933;SDS011;59081;42.706;23.306;2023-04-25T05:22:04;14.27;;;9.35;;
43933;SDS011;59081;42.706;23.306;2023-04-25T05:24:30;11.95;;;9.02;;
43933;SDS011;59081;42.706;23.306;2023-04-25T05:26:56;12.13;;;9.43;;
43933;SDS011;59081;42.706;23.306;2023-04-25T05:29:22;10.60;;;8.45;;
43933;SDS011;59081;42.706;23.306;2023-04-25T05:31:47;11.73;;;8.70;;
43933;SDS011;59081;42.706;23.306;2023-04-25T05:34:13;12.02;;;8.07;;
43933;SDS011;59081;42.706;23.306;2023-04-25T05:36:39;13.57;;;8.82;;
43933;SDS011;59081;42.706;23.306;2023-04-25T05:39:04;10.88;;;8.27;;
43933;SDS011;59081;42.706;23.306;2023-04-25T05:41:31;13.20;;;9.27;;
43933;SDS011;59081;42.706;23.306;2023-04-25T05:43:56;13.90;;;9.35;;
43933;SDS011;59081;42.706;23.306;2023-04-25T05:46:22;16.33;;;9.45;;
43933;SDS011;59081;42.706;23.306;2023-04-25T05:48:47;11.43;;;8.55;;
43933;SDS011;59081;42.706;23.306;2023-04-25T05:51:13;11.05;;;7.88;;
43933;SDS011;59081;42.706;23.306;2023-04-25T05:53:38;11.60;;;8.93;;
43933;SDS011;59081;42.706;23.306;2023-04-25T05:56:03;12.98;;;8.52;;
43933;SDS011;59081;42.706;23.306;2023-04-25T05:58:29;11.13;;;8.05;;
43933;SDS011;59081;42.706;23.306;2023-04-25T06:00:55;12.93;;;9.35;;
43933;SDS011;59081;42.706;23.306;2023-04-25T06:03:20;16.85;;;9.35;;
43933;SDS011;59081;42.706;23.306;2023-04-25T06:05:46;13.18;;;9.60;;
43933;SDS011;59081;42.706;23.306;2023-04-25T06:08:11;16.27;;;10.40;;
43933;SDS011;59081;42.706;23.306;2023-04-25T06:10:37;11.57;;;8.90;;
43933;SDS011;59081;42.706;23.306;2023-04-25T06:13:03;11.73;;;8.80;;
43933;SDS011;59081;42.706;23.306;2023-04-25T06:15:30;13.50;;;8.68;;
43933;SDS011;59081;42.706;23.306;2023-04-25T06:17:57;12.30;;;7.85;;
43933;SDS011;59081;42.706;23.306;2023-04-25T06:20:24;12.45;;;8.45;;
43933;SDS011;59081;42.706;23.306;2023-04-25T06:22:50;14.27;;;8.63;;
43933;SDS011;59081;42.706;23.306;2023-04-25T06:25:16;17.88;;;11.55;;
43933;SDS011;59081;42.706;23.306;2023-04-25T06:27:42;16.80;;;12.48;;
43933;SDS011;59081;42.706;23.306;2023-04-25T06:30:07;18.85;;;13.35;;
43933;SDS011;59081;42.706;23.306;2023-04-25T06:32:33;18.25;;;13.30;;
43933;SDS011;59081;42.706;23.306;2023-04-25T06:34:59;15.90;;;11.77;;
43933;SDS011;59081;42.706;23.306;2023-04-25T06:37:25;12.82;;;10.70;;
43933;SDS011;59081;42.706;23.306;2023-04-25T06:39:50;13.85;;;10.00;;
43933;SDS011;59081;42.706;23.306;2023-04-25T06:42:16;11.25;;;8.82;;
43933;SDS011;59081;42.706;23.306;2023-04-25T06:44:41;11.70;;;7.07;;
43933;SDS011;59081;42.706;23.306;2023-04-25T06:47:07;15.57;;;8.07;;
43933;SDS011;59081;42.706;23.306;2023-04-25T06:49:32;12.55;;;7.15;;
43933;SDS011;59081;42.706;23.306;2023-04-25T06:51:58;12.77;;;7.55;;
43933;SDS011;59081;42.706;23.306;2023-04-25T06:54:23;13.13;;;7.68;;
43933;SDS011;59081;42.706;23.306;2023-04-25T06:56:49;9.45;;;5.70;;
43933;SDS011;59081;42.706;23.306;2023-04-25T06:59:15;13.32;;;7.72;;
43933;SDS011;59081;42.706;23.306;2023-04-25T07:01:40;14.70;;;7.30;;
43933;SDS011;59081;42.706;23.306;2023-04-25T07:04:06;13.65;;;7.40;;
43933;SDS011;59081;42.706;23.306;2023-04-25T07:06:31;9.25;;;7.30;;
43933;SDS011;59081;42.706;23.306;2023-04-25T07:08:57;13.70;;;6.90;;
43933;SDS011;59081;42.706;23.306;2023-04-25T07:11:22;13.80;;;7.03;;
43933;SDS011;59081;42.706;23.306;2023-04-25T07:13:48;16.77;;;7.07;;
43933;SDS011;59081;42.706;23.306;2023-04-25T07:16:13;9.07;;;6.75;;
43933;SDS011;59081;42.706;23.306;2023-04-25T07:18:39;8.82;;;6.13;;
43933;SDS011;59081;42.706;23.306;2023-04-25T07:21:04;9.80;;;6.70;;
43933;SDS011;59081;42.706;23.306;2023-04-25T07:23:30;11.57;;;7.63;;
43933;SDS011;59081;42.706;23.306;2023-04-25T07:25:55;13.77;;;6.60;;
43933;SDS011;59081;42.706;23.306;2023-04-25T07:28:21;12.13;;;6.88;;
43933;SDS011;59081;42.706;23.306;2023-04-25T07:30:46;11.23;;;7.25;;
43933;SDS011;59081;42.706;23.306;2023-04-25T07:33:12;11.85;;;7.70;;
43933;SDS011;59081;42.706;23.306;2023-04-25T07:35:37;14.88;;;7.57;;
43933;SDS011;59081;42.706;23.306;2023-04-25T07:38:03;10.98;;;7.60;;
43933;SDS011;59081;42.706;23.306;2023-04-25T07:40:28;14.57;;;8.13;;
43933;SDS011;59081;42.706;23.306;2023-04-25T07:42:55;14.70;;;7.57;;
43933;SDS011;59081;42.706;23.306;2023-04-25T07:45:20;20.02;;;7.50;;
43933;SDS011;59081;42.706;23.306;2023-04-25T07:47:45;20.08;;;8.75;;
43933;SDS011;59081;42.706;23.306;2023-04-25T07:50:11;15.93;;;7.28;;
43933;SDS011;59081;42.706;23.306;2023-04-25T07:52:36;12.65;;;7.43;;
43933;SDS011;59081;42.706;23.306;2023-04-25T07:55:02;19.27;;;8.55;;
43933;SDS011;59081;42.706;23.306;2023-04-25T07:57:28;16.05;;;7.90;;
43933;SDS011;59081;42.706;23.306;2023-04-25T07:59:54;21.27;;;8.23;;
43933;SDS011;59081;42.706;23.306;2023-04-25T08:02:19;16.90;;;7.95;;
43933;SDS011;59081;42.706;23.306;2023-04-25T08:04:45;16.80;;;7.57;;
43933;SDS011;59081;42.706;23.306;2023-04-25T08:07:11;13.05;;;7.85;;
43933;SDS011;59081;42.706;23.306;2023-04-25T08:09:37;13.90;;;7.03;;
43933;SDS011;59081;42.706;23.306;2023-04-25T08:12:02;14.93;;;7.55;;
43933;SDS011;59081;42.706;23.306;2023-04-25T08:14:29;12.55;;;7.82;;
43933;SDS011;59081;42.706;23.306;2023-04-25T08:17:00;11.05;;;6.38;;
43933;SDS011;59081;42.706;23.306;2023-04-25T08:19:26;11.95;;;8.23;;
43933;SDS011;59081;42.706;23.306;2023-04-25T08:21:51;17.98;;;7.20;;
43933;SDS011;59081;42.706;23.306;2023-04-25T08:24:17;10.95;;;6.82;;
43933;SDS011;59081;42.706;23.306;2023-04-25T08:26:42;9.45;;;6.30;;
43933;SDS011;59081;42.706;23.306;2023-04-25T08:29:07;16.63;;;7.00;;
43933;SDS011;59081;42.706;23.306;2023-04-25T08:31:33;15.55;;;6.20;;
43933;SDS011;59081;42.706;23.306;2023-04-25T08:33:58;14.50;;;6.50;;
43933;SDS011;59081;42.706;23.306;2023-04-25T08:36:24;10.80;;;7.22;;
43933;SDS011;59081;42.706;23.306;2023-04-25T08:38:50;12.57;;;7.82;;
43933;SDS011;59081;42.706;23.306;2023-04-25T08:41:15;15.02;;;7.90;;
43933;SDS011;59081;42.706;23.306;2023-04-25T08:43:42;14.23;;;9.27;;
43933;SDS011;59081;42.706;23.306;2023-04-25T08:46:11;9.65;;;5.43;;
43933;SDS011;59081;42.706;23.306;2023-04-25T08:48:37;8.05;;;5.88;;
43933;SDS011;59081;42.706;23.306;2023-04-25T08:51:06;7.28;;;4.43;;
43933;SDS011;59081;42.706;23.306;2023-04-25T08:53:33;7.93;;;4.57;;
43933;SDS011;59081;42.706;23.306;2023-04-25T08:55:59;7.53;;;4.25;;
43933;SDS011;59081;42.706;23.306;2023-04-25T08:58:29;4.82;;;3.58;;
43933;SDS011;59081;42.706;23.306;2023-04-25T09:00:54;6.40;;;3.58;;
43933;SDS011;59081;42.706;23.306;2023-04-25T09:03:20;6.38;;;3.80;;
43933;SDS011;59081;42.706;23.306;2023-04-25T09:05:45;9.35;;;4.45;;
43933;SDS011;59081;42.706;23.306;2023-04-25T09:08:11;5.95;;;4.50;;
43933;SDS011;59081;42.706;23.306;2023-04-25T09:10:37;8.20;;;5.10;;
43933;SDS011;59081;42.706;23.306;2023-04-25T09:13:06;9.68;;;5.22;;
43933;SDS011;59081;42.706;23.306;2023-04-25T09:15:52;8.30;;;5.60;;
43933;SDS011;59081;42.706;23.306;2023-04-25T09:18:22;10.85;;;6.72;;
43933;SDS011;59081;42.706;23.306;2023-04-25T09:20:52;11.13;;;6.22;;
43933;SDS011;59081;42.706;23.306;2023-04-25T09:23:19;9.70;;;5.05;;
43933;SDS011;59081;42.706;23.306;2023-04-25T09:25:49;6.95;;;4.15;;
43933;SDS011;59081;42.706;23.306;2023-04-25T09:28:23;7.13;;;5.10;;
43933;SDS011;59081;42.706;23.306;2023-04-25T09:30:55;11.82;;;6.30;;
43933;SDS011;59081;42.706;23.306;2023-04-25T09:33:26;11.88;;;6.00;;
43933;SDS011;59081;42.706;23.306;2023-04-25T09:36:05;8.80;;;5.90;;
43933;SDS011;59081;42.706;23.306;2023-04-25T09:38:32;11.23;;;5.95;;
43933;SDS011;59081;42.706;23.306;2023-04-25T09:41:08;6.07;;;5.05;;
43933;SDS011;59081;42.706;23.306;2023-04-25T09:43:35;13.68;;;5.20;;
43933;SDS011;59081;42.706;23.306;2023-04-25T09:46:01;16.75;;;5.10;;
43933;SDS011;59081;42.706;23.306;2023-04-25T09:48:27;11.20;;;5.35;;
43933;SDS011;59081;42.706;23.306;2023-04-25T09:53:28;2.88;;;2.15;;
43933;SDS011;59081;42.706;23.306;2023-04-25T09:55:53;2.63;;;1.88;;
43933;SDS011;59081;42.706;23.306;2023-04-25T09:58:20;2.70;;;2.20;;
43933;SDS011;59081;42.706;23.306;2023-04-25T10:00:46;3.72;;;2.10;;
43933;SDS011;59081;42.706;23.306;2023-04-25T10:03:13;8.35;;;2.75;;
43933;SDS011;59081;42.706;23.306;2023-04-25T10:05:40;5.88;;;2.80;;
43933;SDS011;59081;42.706;23.306;2023-04-25T10:08:06;4.38;;;2.30;;
43933;SDS011;59081;42.706;23.306;2023-04-25T10:10:33;3.38;;;2.03;;
43933;SDS011;59081;42.706;23.306;2023-04-25T10:13:03;4.25;;;2.50;;
43933;SDS011;59081;42.706;23.306;2023-04-25T10:15:30;4.88;;;2.40;;
43933;SDS011;59081;42.706;23.306;2023-04-25T10:17:57;2.67;;;2.40;;
43933;SDS011;59081;42.706;23.306;2023-04-25T10:20:23;5.05;;;3.00;;
43933;SDS011;59081;42.706;23.306;2023-04-25T10:22:49;2.45;;;1.80;;
43933;SDS011;59081;42.706;23.306;2023-04-25T10:25:19;3.63;;;0.90;;
43933;SDS011;59081;42.706;23.306;2023-04-25T10:27:44;2.92;;;1.15;;
43933;SDS011;59081;42.706;23.306;2023-04-25T10:30:11;3.90;;;1.33;;
43933;SDS011;59081;42.706;23.306;2023-04-25T10:32:41;2.13;;;1.40;;
43933;SDS011;59081;42.706;23.306;2023-04-25T10:35:11;1.85;;;1.15;;
43933;SDS011;59081;42.706;23.306;2023-04-25T10:40:27;1.02;;;0.70;;
43933;SDS011;59081;42.706;23.306;2023-04-25T10:42:53;1.08;;;0.80;;
43933;SDS011;59081;42.706;23.306;2023-04-25T10:45:21;3.20;;;1.10;;
43933;SDS011;59081;42.706;23.306;2023-04-25T10:47:47;2.53;;;1.00;;
43933;SDS011;59081;42.706;23.306;2023-04-25T10:50:16;2.20;;;1.02;;
43933;SDS011;59081;42.706;23.306;2023-04-25T10:52:42;7.30;;;1.50;;
43933;SDS011;59081;42.706;23.306;2023-04-25T10:55:08;2.10;;;1.30;;
43933;SDS011;59081;42.706;23.306;2023-04-25T10:57:38;4.30;;;1.42;;
43933;SDS011;59081;42.706;23.306;2023-04-25T11:02:55;3.97;;;1.35;;
43933;SDS011;59081;42.706;23.306;2023-04-25T11:05:27;1.55;;;1.00;;
43933;SDS011;59081;42.706;23.306;2023-04-25T11:07:56;1.80;;;0.70;;
43933;SDS011;59081;42.706;23.306;2023-04-25T11:10:26;1.73;;;0.88;;
43933;SDS011;59081;42.706;23.306;2023-04-25T11:12:53;4.07;;;0.80;;
43933;SDS011;59081;42.706;23.306;2023-04-25T11:15:18;1.48;;;0.65;;
43933;SDS011;59081;42.706;23.306;2023-04-25T11:17:44;1.15;;;0.90;;
43933;SDS011;59081;42.706;23.306;2023-04-25T11:20:11;1.33;;;1.10;;
43933;SDS011;59081;42.706;23.306;2023-04-25T11:22:40;2.60;;;1.05;;
43933;SDS011;59081;42.706;23.306;2023-04-25T11:25:06;1.30;;;1.17;;
43933;SDS011;59081;42.706;23.306;2023-04-25T11:27:33;3.53;;;1.42;;
43933;SDS011;59081;42.706;23.306;2023-04-25T11:30:09;1.20;;;0.88;;
43933;SDS011;59081;42.706;23.306;2023-04-25T11:32:35;2.03;;;1.33;;
43933;SDS011;59081;42.706;23.306;2023-04-25T11:35:01;2.55;;;0.80;;
43933;SDS011;59081;42.706;23.306;2023-04-25T11:37:26;4.32;;;0.70;;
43933;SDS011;59081;42.706;23.306;2023-04-25T11:39:52;0.70;;;0.63;;
43933;SDS011;59081;42.706;23.306;2023-04-25T11:42:17;6.78;;;1.58;;
43933;SDS011;59081;42.706;23.306;2023-04-25T11:44:43;1.77;;;1.13;;
43933;SDS011;59081;42.706;23.306;2023-04-25T11:47:08;0.75;;;0.60;;
43933;SDS011;59081;42.706;23.306;2023-04-25T11:49:34;0.73;;;0.60;;
43933;SDS011;59081;42.706;23.306;2023-04-25T11:52:00;1.75;;;0.88;;
43933;SDS011;59081;42.706;23.306;2023-04-25T11:54:26;0.40;;;0.40;;
43933;SDS011;59081;42.706;23.306;2023-04-25T11:56:51;1.20;;;0.95;;
43933;SDS011;59081;42.706;23.306;2023-04-25T11:59:17;0.70;;;0.65;;
43933;SDS011;59081;42.706;23.306;2023-04-25T12:01:49;1.83;;;1.00;;
43933;SDS011;59081;42.706;23.306;2023-04-25T12:04:16;1.48;;;1.00;;
43933;SDS011;59081;42.706;23.306;2023-04-25T12:06:47;1.30;;;0.70;;
43933;SDS011;59081;42.706;23.306;2023-04-25T12:09:14;0.50;;;0.50;;
43933;SDS011;59081;42.706;23.306;2023-04-25T12:11:43;0.82;;;0.80;;
43933;SDS011;59081;42.706;23.306;2023-04-25T12:14:20;0.93;;;0.65;;
43933;SDS011;59081;42.706;23.306;2023-04-25T12:16:49;3.33;;;1.17;;
43933;SDS011;59081;42.706;23.306;2023-04-25T12:19:17;2.20;;;0.73;;
43933;SDS011;59081;42.706;23.306;2023-04-25T12:21:43;0.85;;;0.82;;
43933;SDS011;59081;42.706;23.306;2023-04-25T12:24:14;0.98;;;0.73;;
43933;SDS011;59081;42.706;23.306;2023-04-25T12:26:51;2.80;;;1.23;;
43933;SDS011;59081;42.706;23.306;2023-04-25T12:29:23;5.65;;;1.05;;
43933;SDS011;59081;42.706;23.306;2023-04-25T12:31:50;3.72;;;1.00;;
43933;SDS011;59081;42.706;23.306;2023-04-25T12:34:17;8.85;;;1.73;;
43933;SDS011;59081;42.706;23.306;2023-04-25T12:36:43;5.55;;;2.10;;
43933;SDS011;59081;42.706;23.306;2023-04-25T12:39:13;2.30;;;1.35;;
43933;SDS011;59081;42.706;23.306;2023-04-25T12:41:43;2.60;;;1.20;;
43933;SDS011;59081;42.706;23.306;2023-04-25T12:44:09;1.50;;;1.40;;
43933;SDS011;59081;42.706;23.306;2023-04-25T12:46:35;2.13;;;1.10;;
43933;SDS011;59081;42.706;23.306;2023-04-25T12:49:01;2.45;;;1.08;;
43933;SDS011;59081;42.706;23.306;2023-04-25T12:51:28;5.03;;;1.83;;
43933;SDS011;59081;42.706;23.306;2023-04-25T12:53:54;3.55;;;2.17;;
43933;SDS011;59081;42.706;23.306;2023-04-25T12:56:19;3.38;;;1.50;;
43933;SDS011;59081;42.706;23.306;2023-04-25T12:58:45;3.25;;;1.80;;
43933;SDS011;59081;42.706;23.306;2023-04-25T13:01:11;2.45;;;1.98;;
43933;SDS011;59081;42.706;23.306;2023-04-25T13:03:38;1.83;;;1.38;;
43933;SDS011;59081;42.706;23.306;2023-04-25T13:06:04;4.18;;;1.80;;
43933;SDS011;59081;42.706;23.306;2023-04-25T13:08:30;3.47;;;1.40;;
43933;SDS011;59081;42.706;23.306;2023-04-25T13:10:55;2.53;;;1.23;;
43933;SDS011;59081;42.706;23.306;2023-04-25T13:13:21;3.33;;;2.28;;
43933;SDS011;59081;42.706;23.306;2023-04-25T13:15:47;1.85;;;1.50;;
43933;SDS011;59081;42.706;23.306;2023-04-25T13:18:12;3.03;;;1.63;;
43933;SDS011;59081;42.706;23.306;2023-04-25T13:20:38;6.70;;;2.55;;
43933;SDS011;59081;42.706;23.306;2023-04-25T13:23:03;3.83;;;2.65;;
43933;SDS011;59081;42.706;23.306;2023-04-25T13:25:29;8.73;;;2.30;;
43933;SDS011;59081;42.706;23.306;2023-04-25T13:27:54;3.30;;;2.25;;
43933;SDS011;59081;42.706;23.306;2023-04-25T13:30:20;4.88;;;1.88;;
43933;SDS011;59081;42.706;23.306;2023-04-25T13:32:46;2.60;;;1.55;;
43933;SDS011;59081;42.706;23.306;2023-04-25T13:35:12;4.22;;;2.72;;
43933;SDS011;59081;42.706;23.306;2023-04-25T13:37:39;2.05;;;1.35;;
43933;SDS011;59081;42.706;23.306;2023-04-25T13:40:05;2.95;;;2.20;;
43933;SDS011;59081;42.706;23.306;2023-04-25T13:42:34;5.30;;;2.45;;
43933;SDS011;59081;42.706;23.306;2023-04-25T13:45:00;4.05;;;2.58;;
43933;SDS011;59081;42.706;23.306;2023-04-25T13:47:25;5.13;;;2.58;;
43933;SDS011;59081;42.706;23.306;2023-04-25T13:49:52;5.60;;;2.38;;
43933;SDS011;59081;42.706;23.306;2023-04-25T13:52:18;6.38;;;2.75;;
43933;SDS011;59081;42.706;23.306;2023-04-25T13:54:43;4.70;;;2.95;;
43933;SDS011;59081;42.706;23.306;2023-04-25T13:57:09;8.13;;;1.77;;
43933;SDS011;59081;42.706;23.306;2023-04-25T13:59:36;3.92;;;2.47;;
43933;SDS011;59081;42.706;23.306;2023-04-25T14:02:02;3.33;;;2.42;;
43933;SDS011;59081;42.706;23.306;2023-04-25T14:04:27;2.72;;;2.03;;
43933;SDS011;59081;42.706;23.306;2023-04-25T14:06:53;5.03;;;2.92;;
43933;SDS011;59081;42.706;23.306;2023-04-25T14:09:19;5.30;;;2.30;;
43933;SDS011;59081;42.706;23.306;2023-04-25T14:11:45;2.67;;;1.90;;
43933;SDS011;59081;42.706;23.306;2023-04-25T14:14:11;1.70;;;1.60;;
43933;SDS011;59081;42.706;23.306;2023-04-25T14:16:38;1.48;;;1.35;;
43933;SDS011;59081;42.706;23.306;2023-04-25T14:19:03;2.75;;;1.50;;
43933;SDS011;59081;42.706;23.306;2023-04-25T14:21:29;3.15;;;1.50;;
43933;SDS011;59081;42.706;23.306;2023-04-25T14:23:57;2.38;;;1.60;;
43933;SDS011;59081;42.706;23.306;2023-04-25T14:26:22;3.13;;;1.60;;
43933;SDS011;59081;42.706;23.306;2023-04-25T14:28:48;1.88;;;1.63;;
43933;SDS011;59081;42.706;23.306;2023-04-25T14:31:13;6.25;;;2.35;;
43933;SDS011;59081;42.706;23.306;2023-04-25T14:33:39;2.10;;;1.40;;